Time;durP1;ratioP1;P1;durP2;ratioP2;P2;SDS_P1;SDS_P2;PMS_P1;PMS_P2;Temp;Humidity;BMP_temperature;BMP_pressure;BME280_temperature;BME280_humidity;BME280_pressure;Samples;Min_cycle;Max_cycle;Signal;HPM_P1;HPM_P2
2022/01/16 00:02:09;;;;;;;38.27;19.07;;;;;;;2.60;100.00;101527.47;7407439;19;20404;-48
2022/01/16 00:04:36;;;;;;;41.40;19.93;;;;;;;2.65;100.00;101521.13;7396902;19;20414;-46
2022/01/16 00:07:06;;;;;;;43.47;20.17;;;;;;;2.64;100.00;101523.53;7401802;19;20454;-45
2022/01/16 00:09:37;;;;;;;37.63;19.60;;;;;;;2.61;100.00;101516.50;7398575;19;20487;-48
2022/01/16 00:12:11;;;;;;;42.40;19.43;;;;;;;2.51;100.00;101517.38;7403210;19;20444;-45
2022/01/16 00:14:40;;;;;;;38.37;19.60;;;;;;;2.52;100.00;101516.63;7397671;19;20423;-45
2022/01/16 00:17:10;;;;;;;39.20;20.40;;;;;;;2.55;100.00;101518.53;7398985;19;20394;-47
2022/01/16 00:19:39;;;;;;;42.03;19.77;;;;;;;2.45;100.00;101496.47;7400259;19;20507;-47
2022/01/16 00:22:13;;;;;;;44.53;20.47;;;;;;;2.50;100.00;101479.94;7402130;19;20398;-51
2022/01/16 00:24:43;;;;;;;48.07;21.67;;;;;;;2.38;100.00;101499.25;7397749;19;20689;-46
2022/01/16 00:27:16;;;;;;;44.50;22.33;;;;;;;2.43;100.00;101496.31;7401096;19;20873;-46
2022/01/16 00:29:45;;;;;;;40.97;20.00;;;;;;;2.48;100.00;101506.03;7397316;19;20433;-47
2022/01/16 00:32:15;;;;;;;45.60;21.43;;;;;;;2.40;100.00;101520.66;7402045;19;20730;-47
2022/01/16 00:34:44;;;;;;;37.40;20.07;;;;;;;2.40;100.00;101521.56;7396708;19;20411;-47
2022/01/16 00:37:15;;;;;;;39.23;18.60;;;;;;;2.43;100.00;101519.25;7400650;19;20390;-48
2022/01/16 00:39:45;;;;;;;39.47;20.63;;;;;;;2.50;100.00;101504.50;7397902;19;20478;-49
2022/01/16 00:42:17;;;;;;;50.17;21.97;;;;;;;2.41;100.00;101504.63;7401581;19;20936;-46
2022/01/16 00:44:46;;;;;;;39.10;18.47;;;;;;;2.29;100.00;101494.25;7396312;19;20419;-46
2022/01/16 00:47:17;;;;;;;39.27;18.43;;;;;;;2.25;100.00;101493.09;7398416;19;20386;-44
2022/01/16 00:49:47;;;;;;;35.83;18.50;;;;;;;2.23;100.00;101474.25;7396578;19;20415;-48
2022/01/16 00:52:16;;;;;;;35.97;18.50;;;;;;;2.21;100.00;101455.38;7403155;19;20467;-45
2022/01/16 00:54:46;;;;;;;46.43;18.83;;;;;;;2.23;100.00;101446.22;7397583;19;20482;-49
2022/01/16 00:57:19;;;;;;;39.63;19.30;;;;;;;2.20;100.00;101448.50;7404536;19;20399;-46
2022/01/16 00:59:49;;;;;;;36.40;18.23;;;;;;;2.15;100.00;101449.75;7397118;19;20764;-45
2022/01/16 01:02:18;;;;;;;39.50;18.03;;;;;;;2.17;100.00;101422.78;7400879;19;20399;-46
2022/01/16 01:04:48;;;;;;;39.37;19.43;;;;;;;2.21;100.00;101419.72;7397449;19;20414;-48
2022/01/16 01:07:18;;;;;;;37.93;19.57;;;;;;;2.22;100.00;101435.91;7398061;19;20388;-47
2022/01/16 01:09:47;;;;;;;38.03;19.80;;;;;;;2.18;100.00;101434.75;7396824;19;20411;-49
2022/01/16 01:12:27;;;;;;;39.10;19.73;;;;;;;2.19;100.00;101433.97;7400413;19;20473;-47
2022/01/16 01:15:07;;;;;;;39.60;18.17;;;;;;;2.12;100.00;101424.03;7395647;19;20466;-47
2022/01/16 01:17:44;;;;;;;39.83;18.90;;;;;;;2.16;100.00;101428.63;7399563;19;20667;-46
2022/01/16 01:20:17;;;;;;;42.97;21.00;;;;;;;2.12;100.00;101418.94;7398604;19;20533;-49
2022/01/16 01:22:48;;;;;;;36.10;17.33;;;;;;;2.09;100.00;101419.56;7400025;19;20406;-45
2022/01/16 01:25:18;;;;;;;41.97;20.80;;;;;;;2.02;100.00;101414.72;7395487;19;20436;-45
2022/01/16 01:27:50;;;;;;;36.93;18.63;;;;;;;1.95;100.00;101423.44;7398527;19;20396;-46
2022/01/16 01:30:23;;;;;;;33.80;17.90;;;;;;;1.91;100.00;101408.69;7396580;19;20423;-45
2022/01/16 01:32:55;;;;;;;34.23;16.20;;;;;;;1.88;100.00;101416.94;7399907;19;20405;-48
2022/01/16 01:35:25;;;;;;;34.50;16.27;;;;;;;1.92;100.00;101418.09;7396539;19;20443;-47
2022/01/16 01:37:55;;;;;;;37.43;18.70;;;;;;;1.94;100.00;101424.22;7398879;19;20705;-50
2022/01/16 01:40:26;;;;;;;37.17;17.30;;;;;;;1.92;100.00;101422.28;7396174;19;20407;-46
2022/01/16 01:51:02;;;;;;;36.57;19.37;;;;;;;1.88;100.00;101442.41;7399728;19;20396;-47
2022/01/16 01:51:24;;;;;;;36.50;16.80;;;;;;;1.86;100.00;101371.75;7398972;19;20379;-45
2022/01/16 01:53:56;;;;;;;32.60;17.25;;;;;;;1.89;100.00;101338.91;7395712;19;20415;-46
2022/01/16 01:56:26;;;;;;;34.43;17.73;;;;;;;1.85;100.00;101327.59;7399345;19;20140;-46
2022/01/16 01:59:02;;;;;;;37.30;16.30;;;;;;;1.78;100.00;101342.22;7394857;19;20410;-47
2022/01/16 02:01:32;;;;;;;31.17;16.33;;;;;;;1.90;100.00;101320.38;7398862;19;20389;-45
2022/01/16 02:04:02;;;;;;;35.63;16.07;;;;;;;1.82;100.00;101346.78;7396318;19;20441;-47
2022/01/16 02:06:33;;;;;;;38.13;17.00;;;;;;;1.95;100.00;101369.13;7398093;19;20399;-46
2022/01/16 02:09:06;;;;;;;32.80;16.30;;;;;;;1.91;100.00;101375.59;7394740;19;20474;-49
2022/01/16 02:11:36;;;;;;;31.30;15.50;;;;;;;1.85;100.00;101375.94;7398578;19;20455;-45
2022/01/16 02:14:13;;;;;;;38.13;17.20;;;;;;;1.78;100.00;101380.38;7395388;19;20896;-45
2022/01/16 02:35:57;;;;;;;45.05;19.75;;;;;;;1.02;100.00;101356.81;7397658;19;20178;-47
2022/01/16 02:38:29;;;;;;;49.27;23.17;;;;;;;1.09;100.00;101349.00;7394078;19;20206;-49
2022/01/16 02:41:02;;;;;;;42.80;18.03;;;;;;;1.01;100.00;101349.94;7402665;19;20447;-49
2022/01/16 02:43:34;;;;;;;46.50;19.23;;;;;;;1.12;100.00;101344.16;7401845;19;20875;-48
2022/01/16 02:48:54;;;;;;;49.73;20.20;;;;;;;1.01;100.00;101334.69;7397114;19;20494;-44
2022/01/16 02:51:25;;;;;;;45.47;19.58;;;;;;;1.03;100.00;101340.81;7404918;19;20380;-46
2022/01/16 02:53:57;;;;;;;58.30;22.90;;;;;;;1.16;100.00;101335.16;7402106;19;20511;-49
2022/01/16 02:56:27;;;;;;;50.37;21.37;;;;;;;1.08;100.00;101339.59;7405058;19;20451;-49
2022/01/16 02:58:56;;;;;;;43.93;18.90;;;;;;;0.97;100.00;101330.97;7402467;19;20510;-46
2022/01/16 03:01:26;;;;;;;48.27;22.67;;;;;;;1.00;100.00;101312.56;7409300;19;20459;-45
2022/01/16 03:03:56;;;;;;;48.87;18.27;;;;;;;1.01;100.00;101309.25;7399700;19;20433;-49
2022/01/16 03:06:28;;;;;;;53.85;22.95;;;;;;;1.00;100.00;101304.94;7404271;19;20394;-52
2022/01/16 03:09:01;;;;;;;60.37;23.60;;;;;;;1.03;100.00;101307.78;7400349;19;20434;-46
2022/01/16 03:11:35;;;;;;;36.40;14.27;;;;;;;0.94;100.00;101303.63;7404316;19;20845;-51
2022/01/16 03:14:04;;;;;;;53.53;21.48;;;;;;;0.96;100.00;101301.25;7401438;19;20583;-46
2022/01/16 03:16:34;;;;;;;56.30;24.90;;;;;;;1.06;100.00;101287.69;7404323;19;20125;-50
2022/01/16 03:21:55;;;;;;;53.47;21.67;;;;;;;1.08;100.00;101276.91;7403778;19;20380;-49
2022/01/16 03:24:29;;;;;;;60.20;25.38;;;;;;;1.07;100.00;101280.22;7400137;19;20186;-50
2022/01/16 03:27:00;;;;;;;56.20;23.15;;;;;;;1.08;100.00;101273.50;7402994;19;20174;-51
2022/01/16 03:29:30;;;;;;;75.15;24.90;;;;;;;1.06;100.00;101277.53;7400316;19;20249;-53
2022/01/16 03:32:01;;;;;;;71.18;24.95;;;;;;;1.03;100.00;101272.19;7404075;19;20131;-47
2022/01/16 03:34:31;;;;;;;60.67;24.33;;;;;;;1.12;100.00;101269.56;7398865;19;20183;-50
2022/01/16 03:37:00;;;;;;;74.15;27.17;;;;;;;1.18;100.00;101267.56;7403723;19;20461;-47
2022/01/16 03:39:32;;;;;;;77.68;27.92;;;;;;;1.10;100.00;101264.34;7400165;19;20572;-47
2022/01/16 03:42:02;;;;;;;67.45;26.63;;;;;;;1.30;100.00;101252.47;7403892;19;20123;-51
2022/01/16 03:44:32;;;;;;;57.08;17.23;;;;;;;1.27;100.00;101254.78;7398486;19;20187;-49
2022/01/16 03:47:02;;;;;;;81.32;26.48;;;;;;;1.14;100.00;101245.16;7403087;19;20123;-48
2022/01/16 03:49:33;;;;;;;84.55;26.90;;;;;;;1.26;100.00;101232.63;7399436;19;20190;-49
2022/01/16 03:52:02;;;;;;;75.82;27.20;;;;;;;1.19;100.00;101232.09;7403095;19;20130;-46
2022/01/16 03:54:34;;;;;;;72.75;26.60;;;;;;;1.32;100.00;101217.91;7402494;19;20188;-48
2022/01/16 03:57:04;;;;;;;74.75;28.77;;;;;;;1.35;100.00;101215.63;7402473;19;20123;-48
2022/01/16 03:59:34;;;;;;;67.35;25.23;;;;;;;1.22;100.00;101211.13;7399021;19;20186;-46
2022/01/16 04:02:04;;;;;;;36.63;13.70;;;;;;;1.12;100.00;101214.53;7403074;19;20191;-49
2022/01/16 04:04:34;;;;;;;67.60;25.73;;;;;;;1.10;100.00;101203.34;7399393;19;20478;-45
2022/01/16 04:07:03;;;;;;;65.78;26.00;;;;;;;1.11;100.00;101207.66;7404249;19;20133;-51
2022/01/16 04:09:37;;;;;;;72.80;22.67;;;;;;;1.09;100.00;101199.03;7398789;19;20194;-49
2022/01/16 04:12:09;;;;;;;66.50;24.10;;;;;;;1.08;100.00;101204.88;7403617;19;20131;-47
2022/01/16 04:17:23;;;;;;;56.58;20.90;;;;;;;1.08;100.00;101217.56;7401806;19;20136;-50
2022/01/16 04:19:53;;;;;;;71.60;26.10;;;;;;;1.11;100.00;101212.75;7397562;19;20196;-45
2022/01/16 04:22:23;;;;;;;66.68;23.75;;;;;;;1.14;100.00;101218.09;7402399;19;20127;-48
2022/01/16 04:24:55;;;;;;;67.90;24.75;;;;;;;1.21;100.00;101206.81;7398059;19;20255;-48
2022/01/16 04:27:24;;;;;;;41.33;14.15;;;;;;;1.11;100.00;101205.13;7400576;19;20123;-47
2022/01/16 04:29:54;;;;;;;44.47;17.42;;;;;;;1.09;100.00;101206.66;7395605;19;20197;-50
2022/01/16 04:32:23;;;;;;;70.75;22.77;;;;;;;1.09;100.00;101211.72;7402097;19;20528;-47
2022/01/16 04:34:53;;;;;;;42.47;14.50;;;;;;;1.15;100.00;101207.19;7398711;19;20186;-48
2022/01/16 04:37:22;;;;;;;59.45;20.17;;;;;;;1.16;100.00;101203.88;7400182;19;20130;-48
2022/01/16 04:39:59;;;;;;;49.93;20.23;;;;;;;1.21;100.00;101197.53;7396909;19;20198;-49
2022/01/16 04:45:24;;;;;;;65.00;22.63;;;;;;;1.31;100.00;101223.75;7395170;19;20178;-46
2022/01/16 04:47:53;;;;;;;66.93;24.55;;;;;;;1.31;100.00;101226.28;7398892;19;20134;-51
2022/01/16 04:50:25;;;;;;;65.75;26.30;;;;;;;1.46;100.00;101230.19;7395639;19;20242;-51
2022/01/16 04:52:55;;;;;;;65.63;25.00;;;;;;;1.45;100.00;101230.91;7400399;19;20141;-48
2022/01/16 04:55:28;;;;;;;58.37;20.50;;;;;;;1.39;100.00;101220.22;7396072;19;20758;-48
2022/01/16 04:57:57;;;;;;;69.28;24.08;;;;;;;1.34;100.00;101226.56;7399321;19;20447;-53
2022/01/16 05:00:27;;;;;;;74.65;27.25;;;;;;;1.34;100.00;101226.56;7401358;19;20190;-51
2022/01/16 05:02:56;;;;;;;64.80;24.40;;;;;;;1.35;100.00;101220.72;7399320;19;20131;-50
2022/01/16 05:05:26;;;;;;;64.13;23.75;;;;;;;1.35;100.00;101215.63;7396356;19;20202;-52
2022/01/16 05:07:55;;;;;;;62.60;22.13;;;;;;;1.52;100.00;101218.72;7398151;19;20120;-46
2022/01/16 05:10:27;;;;;;;81.88;29.02;;;;;;;1.44;100.00;101225.72;7399174;19;20502;-47
2022/01/16 05:13:15;;;;;;;78.33;28.73;;;;;;;1.58;100.00;101220.16;7399511;19;20534;-48
2022/01/16 05:18:30;;;;;;;58.80;19.75;;;;;;;1.53;100.00;101198.50;7395205;19;20390;-49
2022/01/16 05:21:00;;;;;;;72.57;26.73;;;;;;;1.91;100.00;101184.72;7402767;19;20133;-46
2022/01/16 05:23:30;;;;;;;90.23;27.67;;;;;;;1.59;100.00;101180.34;7394569;19;20451;-47
2022/01/16 05:26:03;;;;;;;93.13;32.57;;;;;;;1.65;100.00;101183.41;7399006;19;20463;-46
2022/01/16 05:28:33;;;;;;;263.77;93.03;;;;;;;1.64;100.00;101176.53;7393454;19;20422;-49
2022/01/16 05:31:02;;;;;;;82.07;29.67;;;;;;;1.58;100.00;101178.53;7399086;19;20403;-47
2022/01/16 05:33:32;;;;;;;75.77;27.73;;;;;;;1.95;100.00;101184.19;7393583;19;21299;-51
2022/01/16 05:36:01;;;;;;;74.90;25.90;;;;;;;1.90;100.00;101190.56;7398912;19;20396;-46
2022/01/16 05:38:31;;;;;;;85.27;28.13;;;;;;;1.67;100.00;101189.50;7395184;19;20214;-49
2022/01/16 05:41:03;;;;;;;50.33;20.70;;;;;;;1.65;100.00;101198.69;7398978;19;20454;-46
2022/01/16 05:43:33;;;;;;;89.00;28.13;;;;;;;1.85;100.00;101200.34;7390900;19;20480;-46
2022/01/16 05:46:02;;;;;;;71.93;25.87;;;;;;;1.79;100.00;101193.88;7398377;19;20722;-47
2022/01/16 05:48:32;;;;;;;59.33;23.13;;;;;;;1.61;100.00;101189.00;7393607;19;20407;-48
2022/01/16 05:51:01;;;;;;;67.10;24.90;;;;;;;1.73;100.00;101181.50;7398568;19;20463;-45
2022/01/16 05:53:31;;;;;;;58.60;21.07;;;;;;;1.90;100.00;101180.38;7395995;19;20427;-48
2022/01/16 05:56:03;;;;;;;75.23;25.03;;;;;;;1.60;100.00;101182.13;7398474;19;20406;-45
2022/01/16 05:58:33;;;;;;;56.03;20.47;;;;;;;1.84;100.00;101172.25;7387140;19;20478;-48
2022/01/16 06:01:03;;;;;;;42.28;16.23;;;;;;;1.49;100.00;101178.69;7398228;19;20703;-49
2022/01/16 06:03:32;;;;;;;59.97;20.60;;;;;;;1.84;100.00;101172.25;7393295;19;20186;-49
2022/01/16 06:06:02;;;;;;;57.30;19.47;;;;;;;1.64;100.00;101173.97;7400104;19;20418;-48
2022/01/16 06:08:32;;;;;;;123.30;46.17;;;;;;;1.85;100.00;101169.81;7393792;19;20880;-47
2022/01/16 06:11:04;;;;;;;53.10;19.63;;;;;;;1.58;100.00;101168.38;7401730;19;20210;-51
2022/01/16 06:13:33;;;;;;;65.03;22.30;;;;;;;1.43;100.00;101166.31;7395848;19;20242;-46
2022/01/16 06:16:03;;;;;;;49.42;17.25;;;;;;;1.38;100.00;101161.63;7406413;19;20134;-45
2022/01/16 06:18:33;;;;;;;57.30;20.60;;;;;;;1.36;100.00;101164.00;7403495;19;20217;-51
2022/01/16 06:21:03;;;;;;;49.53;18.13;;;;;;;1.30;100.00;101158.41;7408870;19;20364;-54
2022/01/16 06:23:33;;;;;;;54.72;19.15;;;;;;;1.33;100.00;101156.16;7403765;19;20407;-52
2022/01/16 06:26:05;;;;;;;61.45;19.65;;;;;;;1.29;100.00;101154.09;7408937;19;20127;-53
2022/01/16 06:28:34;;;;;;;65.60;20.38;;;;;;;1.28;100.00;101131.97;7403005;19;20245;-47
2022/01/16 06:31:07;;;;;;;55.72;20.85;;;;;;;1.33;100.00;101130.72;7409425;19;20522;-48
2022/01/16 06:33:36;;;;;;;34.88;13.32;;;;;;;1.28;100.00;101132.84;7404720;19;20708;-47
2022/01/16 06:36:07;;;;;;;49.47;17.58;;;;;;;1.33;100.00;101128.16;7409092;19;20354;-48
2022/01/16 06:38:36;;;;;;;51.28;18.85;;;;;;;1.32;100.00;101122.19;7402639;19;20534;-47
2022/01/16 06:41:08;;;;;;;73.00;23.15;;;;;;;1.32;100.00;101124.72;7408855;19;20137;-48
2022/01/16 06:43:38;;;;;;;39.20;13.90;;;;;;;1.25;100.00;101127.50;7404347;19;20190;-50
2022/01/16 06:46:08;;;;;;;43.47;16.07;;;;;;;1.29;100.00;101123.56;7408554;19;20388;-46
2022/01/16 06:48:40;;;;;;;44.10;16.30;;;;;;;1.31;100.00;101119.50;7402221;19;20680;-46
2022/01/16 06:51:10;;;;;;;55.33;20.55;;;;;;;1.38;100.00;101118.38;7408361;19;20227;-47
2022/01/16 06:53:39;;;;;;;45.83;16.90;;;;;;;1.37;100.00;101119.16;7398510;19;20581;-47
2022/01/16 06:56:11;;;;;;;44.80;15.38;;;;;;;1.31;100.00;101115.31;7408340;19;20137;-48
2022/01/16 06:58:41;;;;;;;45.20;14.85;;;;;;;1.31;100.00;101111.88;7402521;19;20194;-47
2022/01/16 07:01:11;;;;;;;50.07;18.73;;;;;;;1.31;100.00;101112.78;7407537;19;20130;-46
2022/01/16 07:03:41;;;;;;;47.42;18.33;;;;;;;1.33;100.00;101123.09;7398608;19;20439;-46
2022/01/16 07:06:11;;;;;;;49.57;16.00;;;;;;;1.34;100.00;101112.16;7407885;19;20119;-45
2022/01/16 07:08:40;;;;;;;54.28;18.50;;;;;;;1.33;100.00;101120.53;7402620;19;20451;-49
2022/01/16 07:11:12;;;;;;;46.50;14.87;;;;;;;1.31;100.00;101119.50;7407711;19;20540;-47
2022/01/16 07:13:42;;;;;;;50.93;20.07;;;;;;;1.31;100.00;101115.31;7401527;19;20415;-45
2022/01/16 07:16:11;;;;;;;55.03;15.90;;;;;;;1.32;100.00;101124.72;7407424;19;20402;-46
2022/01/16 07:18:41;;;;;;;48.10;15.40;;;;;;;1.33;100.00;101120.53;7403019;19;20190;-51
2022/01/16 07:21:13;;;;;;;60.03;20.20;;;;;;;1.38;100.00;101124.34;7403821;19;20208;-48
2022/01/16 07:23:42;;;;;;;63.55;22.55;;;;;;;1.41;100.00;101113.53;7399394;19;20503;-48
2022/01/16 07:26:17;;;;;;;53.85;18.55;;;;;;;1.39;100.00;101112.53;7403382;19;20123;-47
2022/01/16 07:28:48;;;;;;;56.50;20.65;;;;;;;1.37;100.00;101114.94;7398738;19;20590;-46
2022/01/16 07:31:17;;;;;;;65.80;21.15;;;;;;;1.40;100.00;101114.31;7404016;19;20134;-46
2022/01/16 07:33:47;;;;;;;71.20;24.43;;;;;;;1.35;100.00;101108.84;7400597;19;20213;-45
2022/01/16 07:36:16;;;;;;;56.33;17.05;;;;;;;1.33;100.00;101115.47;7403704;19;20655;-45
2022/01/16 07:38:46;;;;;;;66.40;20.27;;;;;;;1.31;100.00;101122.03;7399324;19;20250;-50
2022/01/16 07:41:19;;;;;;;63.67;20.23;;;;;;;1.32;100.00;101128.91;7403905;19;20388;-51
2022/01/16 07:43:48;;;;;;;65.67;21.83;;;;;;;1.27;100.00;101120.91;7398976;19;20413;-50
2022/01/16 07:46:19;;;;;;;62.17;19.45;;;;;;;1.24;100.00;101130.81;7403687;19;20460;-47
2022/01/16 07:48:48;;;;;;;69.93;19.05;;;;;;;1.27;100.00;101135.28;7394785;19;20327;-45
2022/01/16 07:51:18;;;;;;;67.10;22.13;;;;;;;1.27;100.00;101132.72;7403336;19;20206;-46
2022/01/16 07:53:48;;;;;;;73.97;22.73;;;;;;;1.32;100.00;101136.53;7399587;19;20750;-48
2022/01/16 07:56:20;;;;;;;73.07;23.13;;;;;;;1.28;100.00;101134.50;7403179;19;20140;-53
2022/01/16 07:58:49;;;;;;;71.88;25.17;;;;;;;1.34;100.00;101137.56;7397528;19;20254;-48
2022/01/16 08:01:19;;;;;;;38.03;14.30;;;;;;;1.30;100.00;101145.69;7403111;19;20177;-48
2022/01/16 08:03:49;;;;;;;66.80;23.57;;;;;;;1.28;100.00;101143.00;7400045;19;20249;-46
2022/01/16 08:06:19;;;;;;;60.38;19.52;;;;;;;1.28;100.00;101160.81;7402957;19;20447;-47
2022/01/16 08:08:48;;;;;;;73.22;22.65;;;;;;;1.28;100.00;101159.94;7399109;19;20194;-50
2022/01/16 08:11:20;;;;;;;60.80;17.30;;;;;;;1.24;100.00;101165.50;7403506;19;20399;-53
2022/01/16 08:13:50;;;;;;;49.60;16.08;;;;;;;1.27;100.00;101155.63;7396720;19;20501;-48
2022/01/16 08:16:20;;;;;;;78.63;26.85;;;;;;;1.31;100.00;101167.81;7406243;19;20137;-50
2022/01/16 08:18:49;;;;;;;62.28;19.48;;;;;;;1.28;100.00;101170.09;7400770;19;20198;-49
2022/01/16 08:21:19;;;;;;;80.93;25.17;;;;;;;1.31;100.00;101175.44;7402186;19;20130;-47
2022/01/16 08:23:48;;;;;;;71.15;23.77;;;;;;;1.36;100.00;101148.75;7401660;19;20200;-45
2022/01/16 08:26:20;;;;;;;58.30;19.13;;;;;;;1.21;100.00;101156.88;7402223;19;20175;-46
2022/01/16 08:28:50;;;;;;;77.20;22.77;;;;;;;1.25;100.00;101152.03;7396977;19;20496;-53
2022/01/16 08:31:19;;;;;;;64.88;19.20;;;;;;;1.19;100.00;101162.56;7401884;19;20411;-49
2022/01/16 08:33:49;;;;;;;46.83;17.98;;;;;;;1.21;100.00;101167.03;7394628;19;20187;-46
2022/01/16 08:36:18;;;;;;;58.20;18.73;;;;;;;1.19;100.00;101168.53;7401559;19;20119;-46
2022/01/16 08:38:48;;;;;;;87.70;27.98;;;;;;;1.23;100.00;101161.19;7395602;19;20198;-45
2022/01/16 08:41:17;;;;;;;70.75;23.45;;;;;;;1.21;100.00;101161.06;7401705;19;20119;-49
2022/01/16 08:43:49;;;;;;;73.47;23.17;;;;;;;1.19;100.00;101163.44;7397468;19;20258;-46
2022/01/16 08:46:20;;;;;;;48.63;16.67;;;;;;;1.16;100.00;101165.75;7401549;19;20518;-46
2022/01/16 08:48:50;;;;;;;47.60;16.70;;;;;;;1.10;100.00;101160.13;7398538;19;20190;-49
2022/01/16 08:51:21;;;;;;;74.85;21.08;;;;;;;1.08;100.00;101159.13;7399804;19;20405;-45
2022/01/16 08:53:50;;;;;;;82.20;25.88;;;;;;;1.11;100.00;101154.28;7398021;19;20515;-51
2022/01/16 08:56:20;;;;;;;77.63;22.33;;;;;;;1.07;100.00;101157.31;7401049;19;20131;-46
2022/01/16 08:58:52;;;;;;;64.47;17.67;;;;;;;1.07;100.00;101162.38;7396296;19;20204;-46
2022/01/16 09:01:21;;;;;;;69.78;19.75;;;;;;;1.07;100.00;101153.13;7404351;19;20126;-47
2022/01/16 09:03:56;;;;;;;87.65;23.98;;;;;;;1.08;100.00;101159.13;7400698;19;20186;-46
2022/01/16 09:06:27;;;;;;;100.90;26.67;;;;;;;1.08;100.00;101154.03;7400590;19;20119;-46
2022/01/16 09:08:57;;;;;;;87.65;22.00;;;;;;;1.05;100.00;101152.13;7398827;19;20214;-48
2022/01/16 09:11:27;;;;;;;69.78;16.35;;;;;;;1.04;100.00;101162.13;7398810;19;20187;-46
2022/01/16 09:13:59;;;;;;;104.03;26.90;;;;;;;1.07;100.00;101168.38;7397865;19;20182;-48
2022/01/16 09:16:30;;;;;;;64.47;18.65;;;;;;;1.11;100.00;101161.00;7400611;19;20183;-47
2022/01/16 09:19:00;;;;;;;76.95;18.80;;;;;;;1.08;100.00;101161.66;7396694;19;20589;-47
2022/01/16 09:21:29;;;;;;;73.88;22.77;;;;;;;1.05;100.00;101164.81;7400070;19;20406;-48
2022/01/16 09:23:59;;;;;;;86.68;23.88;;;;;;;1.06;100.00;101155.53;7399884;19;20632;-49
2022/01/16 09:26:29;;;;;;;99.90;28.83;;;;;;;1.08;100.00;101159.13;7400184;19;20123;-46
2022/01/16 09:29:01;;;;;;;97.78;27.05;;;;;;;1.07;100.00;101158.22;7395247;19;20245;-47
2022/01/16 09:31:31;;;;;;;108.65;29.85;;;;;;;1.12;100.00;101153.53;7398375;19;20190;-46
2022/01/16 09:34:00;;;;;;;104.93;26.50;;;;;;;1.15;100.00;101147.81;7394542;19;20254;-47
2022/01/16 09:36:30;;;;;;;97.25;28.95;;;;;;;1.16;100.00;101142.88;7399913;19;20123;-47
2022/01/16 09:38:59;;;;;;;67.05;21.85;;;;;;;1.10;100.00;101138.88;7396732;19;20200;-45
2022/01/16 09:41:29;;;;;;;64.93;17.95;;;;;;;1.11;100.00;101148.28;7399653;19;20178;-47
2022/01/16 09:44:02;;;;;;;115.47;26.85;;;;;;;1.13;100.00;101132.41;7395500;19;20186;-46
2022/01/16 09:46:32;;;;;;;99.03;25.23;;;;;;;1.12;100.00;101124.69;7399679;19;20140;-50
2022/01/16 09:49:03;;;;;;;106.78;29.25;;;;;;;1.17;100.00;101129.38;7395039;19;20194;-48
2022/01/16 09:51:33;;;;;;;91.75;26.00;;;;;;;1.16;100.00;101127.63;7401919;19;20206;-48
2022/01/16 09:54:03;;;;;;;94.38;27.52;;;;;;;1.17;100.00;101124.31;7392811;19;20249;-53
2022/01/16 09:56:33;;;;;;;61.17;19.58;;;;;;;1.19;100.00;101129.53;7398948;19;20125;-47
2022/01/16 09:59:10;;;;;;;77.68;18.83;;;;;;;1.19;100.00;101129.53;7394715;19;20189;-51
2022/01/16 10:01:40;;;;;;;107.60;28.98;;;;;;;1.18;100.00;101131.16;7398931;19;20405;-53
2022/01/16 10:04:30;;;;;;;110.97;30.58;;;;;;;1.26;100.00;101136.91;7395112;19;20238;-47
2022/01/16 10:07:01;;;;;;;112.75;30.08;;;;;;;1.27;100.00;101141.22;7403063;19;20565;-45
2022/01/16 10:09:31;;;;;;;63.13;16.05;;;;;;;1.24;100.00;101135.00;7395463;19;20460;-45
2022/01/16 10:12:14;;;;;;;104.10;29.15;;;;;;;1.25;100.00;101131.69;7397182;19;20162;-48
2022/01/16 10:14:49;;;;;;;119.93;33.17;;;;;;;1.26;100.00;101133.47;7394986;19;20513;-51
2022/01/16 10:17:21;;;;;;;81.75;23.90;;;;;;;1.26;100.00;101123.28;7398066;19;20385;-46
2022/01/16 10:19:59;;;;;;;71.80;19.17;;;;;;;1.23;100.00;101129.00;7393898;19;20253;-46
2022/01/16 10:22:39;;;;;;;96.90;24.42;;;;;;;1.26;100.00;101115.66;7400044;19;20122;-46
2022/01/16 10:25:10;;;;;;;84.88;22.58;;;;;;;1.27;100.00;101117.47;7393003;19;20246;-49
2022/01/16 10:27:41;;;;;;;95.35;26.77;;;;;;;1.27;100.00;101104.78;7397469;19;20179;-47
2022/01/16 10:30:17;;;;;;;84.70;22.45;;;;;;;1.26;100.00;101102.97;7394440;19;20196;-49
2022/01/16 10:32:47;;;;;;;115.38;28.17;;;;;;;1.32;100.00;101108.56;7398991;19;20423;-46
2022/01/16 10:35:20;;;;;;;77.07;21.17;;;;;;;1.31;100.00;101119.50;7393071;19;20205;-48
2022/01/16 10:37:51;;;;;;;88.35;24.65;;;;;;;1.33;100.00;101115.47;7397153;19;20150;-47
2022/01/16 10:40:22;;;;;;;99.07;28.35;;;;;;;1.34;100.00;101107.06;7394219;19;20192;-46
2022/01/16 10:42:54;;;;;;;102.75;29.15;;;;;;;1.35;100.00;101108.84;7398223;19;21074;-48
2022/01/16 10:45:28;;;;;;;75.90;21.87;;;;;;;1.35;100.00;101116.47;7387754;19;20192;-51
2022/01/16 10:47:59;;;;;;;103.55;25.75;;;;;;;1.42;100.00;101115.31;7397033;19;20379;-46
2022/01/16 10:50:34;;;;;;;101.72;25.60;;;;;;;1.38;100.00;101119.25;7391326;19;20209;-46
2022/01/16 10:53:05;;;;;;;116.28;28.80;;;;;;;1.47;100.00;101114.97;7397798;19;20119;-48
2022/01/16 10:55:40;;;;;;;69.40;19.48;;;;;;;1.42;100.00;101116.22;7391722;19;20238;-47
2022/01/16 10:58:13;;;;;;;111.22;26.33;;;;;;;1.50;100.00;101105.78;7396688;19;20194;-49
2022/01/16 11:00:51;;;;;;;97.57;27.93;;;;;;;1.48;100.00;101103.13;7400985;19;20621;-46
2022/01/16 11:03:21;;;;;;;99.05;26.80;;;;;;;1.52;100.00;101107.72;7399555;19;20380;-46
2022/01/16 11:05:53;;;;;;;94.13;28.77;;;;;;;1.53;100.00;101104.41;7404332;19;20407;-46
2022/01/16 11:08:25;;;;;;;53.45;18.27;;;;;;;1.55;100.00;101102.00;7396519;19;20411;-49
2022/01/16 11:10:56;;;;;;;80.30;21.38;;;;;;;1.52;100.00;101096.63;7405576;19;20476;-49
2022/01/16 11:13:30;;;;;;;86.43;23.33;;;;;;;1.55;100.00;101092.72;7399572;19;20123;-49
2022/01/16 11:16:04;;;;;;;55.50;14.07;;;;;;;1.54;100.00;101096.00;7404231;19;20415;-50
2022/01/16 11:18:35;;;;;;;97.07;24.73;;;;;;;1.62;100.00;101099.19;7398400;19;20403;-47
2022/01/16 11:21:14;;;;;;;41.40;14.00;;;;;;;1.60;100.00;101101.59;7404206;19;20136;-47
2022/01/16 11:23:59;;;;;;;81.13;24.70;;;;;;;1.63;100.00;101100.97;7403415;19;20431;-45
2022/01/16 11:26:29;;;;;;;43.60;14.88;;;;;;;1.61;100.00;101108.50;7404332;19;20183;-48
2022/01/16 11:29:01;;;;;;;47.40;14.80;;;;;;;1.65;100.00;101104.56;7398111;19;20194;-48
2022/01/16 11:31:33;;;;;;;60.15;20.55;;;;;;;1.65;100.00;101099.47;7402753;19;20471;-51
2022/01/16 11:34:02;;;;;;;77.28;22.85;;;;;;;1.72;100.00;101106.84;7400249;19;20209;-47
2022/01/16 11:36:32;;;;;;;67.25;21.27;;;;;;;1.72;100.00;101101.75;7403666;19;20122;-52
2022/01/16 11:39:04;;;;;;;72.83;21.77;;;;;;;1.80;100.00;101104.03;7399695;19;20197;-52
2022/01/16 11:41:38;;;;;;;88.87;27.10;;;;;;;1.80;100.00;101106.56;7403640;19;20448;-49
2022/01/16 11:44:08;;;;;;;85.32;23.25;;;;;;;1.81;100.00;101100.72;7399273;19;20432;-51
2022/01/16 11:46:43;;;;;;;86.93;27.30;;;;;;;1.82;100.00;101094.88;7403556;19;20127;-46
2022/01/16 11:49:18;;;;;;;75.47;24.20;;;;;;;1.85;100.00;101097.69;7397467;19;20434;-49
2022/01/16 11:52:02;;;;;;;78.33;25.47;;;;;;;1.89;100.00;101104.78;7402940;19;20384;-48
2022/01/16 11:54:40;;;;;;;59.47;17.57;;;;;;;1.88;100.00;101092.81;7400464;19;20443;-46
2022/01/16 11:57:31;;;;;;;86.00;26.20;;;;;;;1.90;100.00;101081.13;7403238;19;20401;-46
2022/01/16 12:00:13;;;;;;;50.43;14.77;;;;;;;1.94;100.00;101092.47;7400484;19;20469;-46
2022/01/16 12:02:48;;;;;;;85.57;23.83;;;;;;;1.97;100.00;101096.13;7402891;19;20866;-48
2022/01/16 12:05:24;;;;;;;74.23;23.17;;;;;;;1.99;100.00;101092.06;7399910;19;20181;-47
2022/01/16 12:07:57;;;;;;;64.32;14.52;;;;;;;1.95;100.00;101087.47;7405884;19;20442;-49